메인 페이지
METAR-TAF:

METAR-TAF

공항 :

애틀랜타, 조지아, 미국

위도: 33-46-39N, 경도: 084-31-28W, 고도: 256m

현재 날씨관측

예보는 24분 전, 13:53시(UTC)에 발표되었습니다.
5kt
온도 24°C
습도 83%
기압 1018 hPa
시정: 16.1km
고도 11000ft 상공 구름 보통

METAR: KFTY 291353Z 17005KT 10SM SCT110 24/21 A3007 RMK AO2 SLP173 T02390206

시각: 10:17 (14:17 UTC)

예보

예보는 2 시간 57분 전, 11:20시(UTC)에 발표되었습니다.
예보 대상 시간: 29일 12시부터 30일 12시까지 (UTC)
kt
시정: 10km
고도 4000ft 상공 구름 조금
고도 12000ft 상공 구름 많음
시계 내 소나기
29일 1500시부터 (UTC)
남서4kt
시정: 10km
고도 3500ft 상공 구름 보통
고도 12000ft 상공 구름 보통
시계 내 소나기
29일 1900시부터 (UTC)
서남서6kt
시정: 10km
고도 4000ft 상공 구름 보통
고도 6000ft 상공 구름 많음
시계 내 소나기
일시적
29일 20시부터 29일 24시까지 (UTC)
시정: 6.4km
고도 4000ft 상공 구름 많음, 적란운.
뇌우, 비
30일 0100시부터 (UTC)
3kt
시정: 10km
고도 5000ft 상공 구름 보통
고도 12000ft 상공 구름 많음
30일 1000시부터 (UTC)
3kt
시정: 10km
고도 1500ft 상공 구름 보통

TAF: KFTY 291120Z 2912/3012 00000KT P6SM VCSH FEW040 BKN120 FM291500 22004KT P6SM VCSH SCT035 SCT120 FM291900 24006KT P6SM VCSH SCT040 BKN060 TEMPO 2920/2924 4SM TSRA BKN040CB FM300100 26003KT P6SM SCT050 BKN120 FM301000 28003KT P6SM SCT015

4,000개 이상의 공항 관측 자료 및 예보 (METAR 및 TAF 보고).

지도상에서 검색 가능한 기상관측소가 노란 점과 빨간 점으로 표시되어 있습니다.

기상관측소 명을 보려면 표시 위로 마우스를 이동하세요.

날씨 관측과 예보를 보려면 클릭하세요.

지도 변경 : 확대하려면 엑스 표시가 있는 녹색 버튼, 축소하려면 빼기 표시가 있는 녹색 버튼, 다음 페이지의 지도를 보려면 녹색 화살표를 클릭하세요.


METAR-TAF: